Ellsworth, New Hampshire
Current Conditions -  °F | °C
As of 8:55 PM on Monday 24 Nov 2014 (Local Time) from K1P1 Reporting Station
Clear Clear  
Wind Chill: 62°   Ceiling: Unl
Heat Index: 62°   Visibility: 10mi
Dew Point: 57°   Wind: 6mph
Humidity: 85%   Direction: 190°S
Pressure: 29.53"   Gusts: NA
Location:  43.7922°N, 71.8971°W
Report Text: K1P1 250155Z AUTO 19005KT 10SM CLR 17/14 A2953 RMK AO2 T01650140
Loading
Personal Weather Stations






























Interactive Weather Map New forecast layout! Learn more

10-Day Weather Forecast

Advertisements
Track Severe Weather on mobile